Cleone, Illinois
Current Conditions -  °F | °C
As of 4:15 PM on Saturday 25 Oct 2014 (Local Time) from KRSV Reporting Station
Clear Clear  
Wind Chill: 82°   Ceiling: Unl
Heat Index: 82°   Visibility: 10mi
Dew Point: 50°   Wind: 10mph
Humidity: 33%   Direction: 320°NW
Pressure: 29.98"   Gusts: NA
Location:  39.2747°N, 87.8463°W
Report Text: KRSV 252115Z AUTO 32009KT 10SM CLR 28/10 A2998 RMK AO2 T02750100
Loading
Personal Weather Stations






























Interactive Weather Map
Tropical Storm Tracking
New forecast layout! Learn more

10-Day Weather Forecast

Advertisements
Track Severe Weather on mobile